METAR Data
IDs: Format: Raw Decoded Include TAF

Data at: 1815 UTC 06 Jul 2020

KFYE 061755Z AUTO 03006KT 10SM CLR 32/24 A2997 RMK A01
KFYE 061735Z AUTO 02004KT 10SM CLR 31/24 A2997 RMK A01
KFYE 061715Z AUTO 35004KT 10SM CLR 30/23 A2997 RMK A01
KFYE 061655Z AUTO 00000KT 10SM CLR 30/23 A2998 RMK A01
KFYE 061635Z AUTO 00000KT 10SM CLR 30/23 A2998 RMK A01
KFYE 061615Z AUTO 02004KT 10SM CLR 29/23 A2998 RMK A01
KFYE 061555Z AUTO 00000KT 10SM CLR 29/23 A2998 RMK A01
KFYE 061535Z AUTO 00000KT 10SM CLR 28/23 A2998 RMK A01
KFYE 061515Z AUTO 00000KT 10SM CLR 28/23 A2998 RMK A01
KFYE 061455Z AUTO VRB03KT 10SM CLR 26/23 A2999 RMK A01
KFYE 061435Z AUTO 00000KT 10SM CLR 26/24 A2999 RMK A01
KFYE 061415Z AUTO 00000KT 10SM CLR 25/23 A2999 RMK A01
KFYE 061355Z AUTO 00000KT 10SM CLR 24/23 A2999 RMK A01
KFYE 061335Z AUTO 00000KT 10SM CLR 24/23 A2999 RMK A01
KFYE 061315Z AUTO 00000KT 10SM CLR 24/23 A2998 RMK A01
KFYE 061255Z AUTO 00000KT 8SM CLR 23/23 A2998 RMK A01
KFYE 061235Z AUTO 00000KT 9SM CLR 23/23 A2997 RMK A01
KFYE 061215Z AUTO 00000KT 8SM FEW047 23/22 A2997 RMK A01
KFYE 061155Z AUTO 00000KT 6SM BR CLR 22/22 A2997 RMK A01
KFYE 061135Z AUTO 00000KT 5SM BR CLR 22/22 A2996 RMK A01
KFYE 061115Z AUTO 00000KT 4SM BR CLR 22/21 A2996 RMK A01
KFYE 061055Z AUTO 00000KT 7SM CLR 22/22 A2995 RMK A01
KFYE 061035Z AUTO 00000KT 6SM BR CLR 22/22 A2995 RMK A01
KFYE 061015Z AUTO 00000KT 5SM BR FEW075 22/21 A2995 RMK A01
KFYE 060955Z AUTO 00000KT 6SM BR BKN070 22/22 A2994 RMK A01
KFYE 060935Z AUTO 00000KT 9SM SCT070 22/22 A2993 RMK A01
KFYE 060915Z AUTO 00000KT 9SM SCT070 22/22 A2992 RMK A01
KFYE 060855Z AUTO 00000KT 9SM CLR 22/22 A2992 RMK A01
KFYE 060835Z AUTO 02003KT 10SM CLR 23/22 A2991 RMK A01
KFYE 060815Z AUTO 00000KT 10SM CLR 22/22 A2991 RMK A01
KFYE 060755Z AUTO 00000KT 9SM CLR 22/22 A2991 RMK A01
KFYE 060735Z AUTO 00000KT 9SM CLR 22/22 A2989 RMK A01
KFYE 060715Z AUTO 00000KT 10SM CLR 22/22 A2989 RMK A01
KFYE 060655Z AUTO 00000KT 10SM CLR 22/22 A2989 RMK A01
KFYE 060635Z AUTO 00000KT 10SM CLR 23/22 A2989 RMK A01
KFYE 060615Z AUTO 00000KT 10SM CLR 22/22 A2990 RMK A01
KFYE 060555Z AUTO 00000KT 10SM CLR 22/22 A2990 RMK A01
KFYE 060535Z AUTO 33003KT 10SM CLR 23/22 A2990 RMK A01
KFYE 060515Z AUTO 00000KT 10SM CLR 23/22 A2992 RMK A01
KFYE 060455Z AUTO 00000KT 10SM CLR 23/22 A2993 RMK A01
KFYE 060435Z AUTO 00000KT 10SM FEW035 23/22 A2994 RMK A01
KFYE 060415Z AUTO 00000KT 10SM BKN035 23/22 A2994 RMK A01
KFYE 060355Z AUTO 00000KT 10SM CLR 23/22 A2993 RMK A01
KFYE 060335Z AUTO 00000KT 10SM CLR 23/22 A2992 RMK A01
KFYE 060315Z AUTO 00000KT 10SM CLR 23/22 A2992 RMK A01
KFYE 060255Z AUTO 00000KT 10SM CLR 23/22 A2993 RMK A01
KFYE 060235Z AUTO 00000KT 10SM CLR 23/22 A2993 RMK A01
KFYE 060215Z AUTO 00000KT 10SM FEW042 23/22 A2993 RMK A01
KFYE 060155Z AUTO 00000KT 10SM SCT043 SCT050 SCT070 24/22 A2993 RMK A01 P0001
KFYE 060135Z AUTO 00000KT 10SM FEW044 SCT049 BKN120 24/22 A2992 RMK A01
KFYE 060115Z AUTO 21004KT 10SM FEW035 SCT045 BKN060 25/22 A2991 RMK A01
KFYE 060055Z AUTO 21005KT 7SM FEW033 BKN045 OVC075 25/22 A2990 RMK A01
KFYE 060035Z AUTO 20003KT 10SM FEW060 SCT075 OVC120 26/22 A2989 RMK A01
KFYE 060015Z AUTO 18004KT 10SM BKN110 26/22 A2989 RMK A01
KFYE 052355Z AUTO 00000KT 10SM SCT100 27/22 A2990 RMK A01
KFYE 052335Z AUTO VRB06G13KT 10SM CLR 28/22 A2990 RMK A01
KFYE 052315Z AUTO 00000KT 10SM CLR 28/24 A2989 RMK A01
KFYE 052255Z AUTO 00000KT 10SM CLR 29/24 A2988 RMK A01
KFYE 052235Z AUTO 16003KT 10SM CLR 30/24 A2988 RMK A01
KFYE 052215Z AUTO 00000KT 10SM CLR 30/24 A2987 RMK A01
KFYE 052155Z AUTO 00000KT 10SM CLR 30/24 A2988 RMK A01
KFYE 052135Z AUTO 00000KT 10SM CLR 30/23 A2988 RMK A01
KFYE 052115Z AUTO 00000KT 10SM CLR 29/23 A2988 RMK A01
KFYE 052055Z AUTO 01003KT 10SM CLR 29/23 A2988 RMK A01 P0001
KFYE 052035Z AUTO 00000KT 10SM CLR 28/24 A2989 RMK A01
KFYE 052015Z AUTO VRB03KT 10SM CLR 26/23 A2989 RMK A01
KFYE 051955Z AUTO 31006KT 2SM HZ SCT037 24/21 A2990 RMK A01 P0013
KFYE 051935Z AUTO 00000KT 6SM HZ BKN038 OVC049 27/22 A2992 RMK A01
KFYE 051915Z AUTO 30008G15KT 10SM OVC038 29/21 A2991 RMK A01
KFYE 051855Z AUTO 30003KT 10SM BKN037 32/23 A2991 RMK A01
KFYE 051835Z AUTO 00000KT 10SM BKN037 32/23 A2991 RMK A01
KFYE 051815Z AUTO 00000KT 10SM BKN038 32/22 A2992 RMK A01
KFYE 051755Z AUTO 00000KT 10SM SCT037 SCT042 32/23 A2993 RMK A01
KFYE 051735Z AUTO 00000KT 10SM FEW032 32/24 A2993 RMK A01
KFYE 051715Z AUTO 00000KT 10SM CLR 31/24 A2993 RMK A01
KFYE 051655Z AUTO 00000KT 10SM CLR 31/24 A2994 RMK A01
KFYE 051635Z AUTO 24004KT 10SM CLR 31/23 A2994 RMK A01
KFYE 051615Z AUTO 00000KT 10SM CLR 30/23 A2994 RMK A01
KFYE 051555Z AUTO 00000KT 10SM CLR 30/23 A2994 RMK A01
KFYE 051535Z AUTO 00000KT 10SM CLR 30/23 A2994 RMK A01
KFYE 051515Z AUTO 19004KT 10SM CLR 30/24 A2994 RMK A01
KFYE 051455Z AUTO 00000KT 10SM CLR 29/24 A2994 RMK A01
KFYE 051435Z AUTO 00000KT 10SM CLR 29/23 A2994 RMK A01
KFYE 051415Z AUTO 00000KT 10SM CLR 29/23 A2994 RMK A01
KFYE 051355Z AUTO 00000KT 10SM CLR 28/24 A2993 RMK A01
KFYE 051335Z AUTO 00000KT 10SM CLR 27/24 A2993 RMK A01
KFYE 051315Z AUTO 00000KT 9SM CLR 26/24 A2993 RMK A01
KFYE 051255Z AUTO 00000KT 7SM CLR 24/24 A2993 RMK A01
KFYE 051235Z AUTO 00000KT 7SM CLR 23/23 A2992 RMK A01
KFYE 051215Z AUTO 00000KT 5SM BR CLR 22/22 A2992 RMK A01
KFYE 051155Z AUTO 00000KT 6SM BR CLR 22/21 A2992 RMK A01
KFYE 051135Z AUTO 00000KT 7SM CLR 21/21 A2991 RMK A01
KFYE 051115Z AUTO 00000KT 3SM BR CLR 21/20 A2991 RMK A01
KFYE 051055Z AUTO 00000KT 3SM BR CLR 21/20 A2991 RMK A01
KFYE 051035Z AUTO 00000KT 6SM BR CLR 21/20 A2990 RMK A01
KFYE 051015Z AUTO 00000KT 4SM BR CLR 21/21 A2989 RMK A01
KFYE 050955Z AUTO 00000KT 4SM BR CLR 21/21 A2989 RMK A01
KFYE 050935Z AUTO 00000KT 4SM BR CLR 21/20 A2988 RMK A01
KFYE 050915Z AUTO 00000KT 3SM BR CLR 21/21 A2988 RMK A01
KFYE 050855Z AUTO 00000KT 5SM BR CLR 22/21 A2987 RMK A01
KFYE 050835Z AUTO 00000KT 5SM BR CLR 22/21 A2987 RMK A01
KFYE 050815Z AUTO 00000KT 4SM BR CLR 22/21 A2987 RMK A01
KFYE 050755Z AUTO 00000KT 5SM BR CLR 22/21 A2987 RMK A01
KFYE 050735Z AUTO 00000KT 3SM BR CLR 22/21 A2987 RMK A01
KFYE 050715Z AUTO 00000KT 4SM BR CLR 22/21 A2988 RMK A01
KFYE 050655Z AUTO 00000KT 4SM BR CLR 22/22 A2989 RMK A01
KFYE 050635Z AUTO 00000KT 5SM BR CLR 23/22 A2989 RMK A01